Main page
METAR-TAF:

METAR-TAF

Airports :

King Khalid Military City

Hafar Al-Batin, Saudi Arabia

latitude: 27-54N, longitude: 045-32E, elevation: 413 m

METAR: missing

Time: 03:03 (00:03 UTC)

Forecast

The report was made 19 hours and 3 minutes ago, at 05:00 UTC
Forecast valid from 22 at 06 UTC to 22 at 20 UTC
Wind 3 kt from variable directions
Visibility: 7000 m
Becoming
from 22 at 06 UTC to 22 at 08 UTC
Wind 14 kt from the North/Northwest
Temporary
from 22 at 10 UTC to 22 at 16 UTC
Visibility: 4000 m
Blowing dust

TAF: OEKK 220500Z 2206/2220 VRB03KT 7000 NSC BECMG 2206/2208 34014KT TEMPO 2210/2216 4000 BLDU

Weather observations and forecasts of more than 4000 airports (METAR and TAF reports).

The available stations are represented by yellow and red dots on the map.

Hover mouse over dot to see the name of the station.

Then click to see weather observations and forecasts.

To change the map : click on the green buttons with a black cross to zoom in, on the green button with a dash to zoom out, or on the green arrows for adjacent maps.


METAR-TAF: